Tiempo atmosférico en la estación meteorológica de Valderredible, Polientes, Cantabria (720 m.)



Fecha
DESCASC
Temp. máxima en grados centígrados (hora)
DESCASC
Temp. mínima en grados centígrados (hora)
DESCASC
Temp. media en grados centígrados
DESCASC
Racha de viento máxima en m/sg (hora)
DESCASC
Velocidad máxima media en intervalos de 10 minutos(hora)
DESCASC
Precipitaciones diarias en mm
DESCASC
Precipitaciones de 00:00 a 06:00 en mm
DESCASC
Precipitaciones de 06:00 a 12:00 en mm
DESCASC
Precipitaciones de 12:00 a 18:00 en mm
DESCASC
Precipitaciones de 18:00 a 24:00 en mm
DESCASC
17-09-2020 27.5 (14:40) 14.9 (08:10) 21.2 9.44 (14:40) 3.61 (14:50) 0.3 0.3 0 0 0
16-09-2020 29 (17:30) 10.1 (06:40) 19.6 4.44 (14:50) 1.94 (15:10) 0 0 0 0 0
15-09-2020 28 (16:40) 12 (08:20) 20 7.78 (15:00) 3.61 (15:00) 6.2 6.2 0 0 0
14-09-2020 31.8 (14:30) 10.5 (00:00) 21.1 10.83 (22:00) 4.17 (15:40) 2.6 0 0 0 2.6
13-09-2020 34 (17:00) 4.7 (00:00) 19.3 8.06 (15:30) 4.17 (16:00) 0 0 0 0 0
12-09-2020 30.5 (15:30) 10.3 (00:00) 20.4 5.56 (17:10) 2.22 (17:10) 0 0 0 0 0
11-09-2020 29.7 (17:20) 8.1 (00:00) 18.9 5.83 (18:50) 2.78 (18:50) 0 0 0 0 0
10-09-2020 29.1 (16:10) 10.2 (00:00) 19.7 7.22 (20:20) 2.78 (20:10) 0 0 0 0 0
09-09-2020 28.5 (15:00) 4.9 (00:00) 16.7 8.33 (18:40) 3.06 (18:40) 0 0 0 0 0
08-09-2020 26 (16:10) 5.4 (00:00) 15.7 6.39 (13:10) 2.78 (12:50) 0 0 0 0 0
07-09-2020 20.1 (17:00) 8.3 (08:00) 14.2 8.61 (11:10) 3.06 (11:10) 0 0 0 0 0
06-09-2020 20.5 (13:40) 12.9 (00:00) 16.7 10 (16:30) 3.06 (16:30) 0.1 0 0.1 0 0
05-09-2020 22.3 (15:10) 9.3 (00:00) 15.8 8.89 (17:10) 3.61 (17:00) 0 0 0 0 0
04-09-2020 33.8 (16:10) 5.2 (00:00) 19.5 6.67 (16:20) 3.33 (16:30) 0 0 0 0 0
03-09-2020 32 (17:10) 8.4 (00:00) 20.2 6.94 (18:00) 3.06 (18:00) 0 0 0 0 0
02-09-2020 25.3 (16:20) 7.2 (00:00) 16.2 6.39 (15:10) 2.22 (13:40) 0 0 0 0 0
01-09-2020 24.6 (14:00) 6.2 (00:00) 15.4 10 (19:00) 3.33 (18:30) 0 0 0 0 0
31-08-2020 24.7 (18:20) 3.7 (00:00) 14.2 5.83 (15:10) 2.78 (15:50) 0 0 0 0 0
30-08-2020 17.6 (16:30) 6.2 (00:00) 11.9 8.61 (18:30) 2.78 (18:30) 1.3 1.3 0 0 0
29-08-2020 19.3 (15:00) 3.9 (00:00) 11.6 7.78 (15:10) 1.39 (13:40) 1 0 0 0.4 0.6
28-08-2020 19 (01:50) 12 (00:00) 15.5 9.17 (16:00) 3.61 (17:20) 0 0 0 0 0
27-08-2020 31.8 (15:10) 16.5 (00:00) 24.1 13.33 (16:50) 4.44 (18:10) 0 0 0 0 0
26-08-2020 30.9 (14:50) 11.5 (00:00) 21.2 6.94 (17:30) 2.78 (16:20) 0 0 0 0 0
25-08-2020 33.7 (16:20) 7.1 (00:00) 20.4 9.44 (18:40) 4.17 (13:50) 0 0 0 0 0
24-08-2020 29.6 (18:40) 10.7 (00:00) 20.2 5.28 (12:00) 2.22 (10:20) 0 0 0 0 0
23-08-2020 26.2 (15:30) 10.2 (00:00) 18.2 6.39 (15:50) 2.22 (20:20) 0 0 0 0 0
22-08-2020 27.9 (15:50) 12.1 (00:00) 20 8.06 (18:00) 3.89 (18:00) 0 0 0 0 0
21-08-2020 26.1 (17:30) 13.9 (00:00) 20 8.89 (17:00) 4.17 (17:10) 0.9 0.8 0 0.1 0

Gráficas

Temp. máximas Temp. mínimas Temp. medias Precipitaciones Rachas de viento máximas Velocidades máximas media en intervalos de 10 minutos

Datos horarios

Fecha y hora oficial Temperatura (ºC) Velocidad del viento (km/h) Dirección del viento Racha (km/h) Dirección de racha Precipitación (mm) Presión (hPa) Tendencia (hPa) Humedad (%)
2020-09-19 23:00:00 12.9 0 Calma 3 Norte 0 -- -- 87
2020-09-19 22:00:00 13.7 0 Calma 5 Norte 0 -- -- 83
2020-09-19 21:00:00 15.6 0 Calma 8 Nordeste 0 -- -- 71
2020-09-19 20:00:00 17.4 2 Nordeste 10 Nordeste 0 -- -- 64
2020-09-19 19:00:00 18.1 4 Nordeste 10 Nordeste 0 -- -- 58
2020-09-19 18:00:00 18.9 4 Nordeste 11 Nordeste 0 -- -- 59
2020-09-19 17:00:00 19.2 4 Nordeste 14 Nordeste 0 -- -- 58
2020-09-19 16:00:00 18.1 6 Nordeste 19 Nordeste 0 -- -- 60
2020-09-19 15:00:00 19.7 12 Sudoeste 22 Oeste 0 -- -- 49
2020-09-19 14:00:00 19.5 2 Sudoeste 15 Sudoeste 0 -- -- 59
2020-09-19 13:00:00 18.2 6 Sudoeste 13 Sudoeste 0 -- -- 64
2020-09-19 12:00:00 15.9 0 Calma 6 Sudoeste 0 -- -- 80
2020-09-19 11:00:00 15.1 0 Calma 11 Oeste 0 -- -- 85
2020-09-19 10:00:00 14.3 4 Oeste 9 Oeste 0.2 -- -- 92
2020-09-19 09:00:00 13.6 0 Calma 4 Sudoeste 0.1 -- -- 93
2020-09-19 08:00:00 13 0 Calma 0 Calma 0 -- -- 93
2020-09-19 07:00:00 12.7 0 Calma 5 Oeste 0 -- -- 93
2020-09-19 06:00:00 12.4 0 Calma 10 Oeste 0 -- -- 93
2020-09-19 05:00:00 13 5 Sudoeste 8 Sudoeste 0 -- -- 93
2020-09-19 04:00:00 13.2 0 Calma -- -- 0 -- -- 93
2020-09-19 03:00:00 13.1 0 Calma -- -- 0 -- -- 93
2020-09-19 02:00:00 13.1 0 Calma 4 Nordeste 0 -- -- 93
2020-09-19 01:00:00 13.4 0 Calma 3 Nordeste 0 -- -- 92
2020-09-19 00:00:00 14.2 0 Calma 3 Nordeste 1 -- -- 92
2020-09-18 23:00:00 14.5 2 Nordeste 9 Sudoeste 0.3 -- -- 91
2020-09-18 22:00:00 14.8 0 Calma 14 Sudoeste 0.3 -- -- 86
2020-09-18 21:00:00 14.9 6 Sudoeste 41 Sudeste 1 -- -- 76
2020-09-18 20:00:00 18.1 0 Calma 5 Sudoeste 0 -- -- 57
2020-09-18 19:00:00 21.5 3 Sudoeste 20 Sudoeste 0 -- -- 41
2020-09-18 18:00:00 24 6 Sur 19 Sudoeste 0 -- -- 35
2020-09-18 17:00:00 23.2 7 Sudoeste 22 Sudoeste 0 -- -- 37
2020-09-18 16:00:00 23.2 8 Sur 30 Sudoeste 0 -- -- 40
2020-09-18 15:00:00 22 9 Sudoeste 28 Sudoeste 0 -- -- 42
2020-09-18 14:00:00 20.9 11 Sudoeste 24 Sudoeste 0 -- -- 46
2020-09-18 13:00:00 18.4 5 Sur 23 Sudoeste 0 -- -- 65
2020-09-18 12:00:00 16.3 5 Sudoeste 22 Sudeste 0 -- -- 73
2020-09-18 11:00:00 15.8 0 Calma 26 Sudoeste 0.8 -- -- 84
2020-09-18 10:00:00 15.3 6 Sudoeste 13 Sudoeste 0 -- -- 87
2020-09-18 09:00:00 15.4 0 Calma 12 Sudoeste 1.9 -- -- 92
2020-09-18 08:00:00 15.4 3 Sudoeste 15 Sudeste 1.7 -- -- 91
2020-09-18 07:00:00 15.6 3 Sur 14 Sudeste 1.1 -- -- 89
2020-09-18 06:00:00 14.7 0 Calma 6 Nordeste 0 -- -- 90
2020-09-18 05:00:00 15.1 0 Calma 9 Sudoeste 0 -- -- 88
2020-09-18 04:00:00 15.7 0 Calma 16 Sudeste 0 -- -- 86
2020-09-18 03:00:00 16.3 5 Nordeste 25 Sudoeste 1.1 -- -- 81
2020-09-18 02:00:00 20 9 Sur 35 Sudoeste 0 -- -- 55
2020-09-18 01:00:00 21.1 5 Sur 13 Sur 0 -- -- 53
2020-09-18 00:00:00 21.2 3 Sur 15 Sur 0 -- -- 52
2020-09-17 23:00:00 20.3 4 Sudoeste 15 Sudoeste 0 -- -- 58
2020-09-17 22:00:00 19 2 Norte 6 Norte 0 -- -- 64
2020-09-17 21:00:00 20.1 0 Calma 5 Nordeste 0 -- -- 58
2020-09-17 20:00:00 23.3 4 Este 15 Sudeste 0 -- -- 43
2020-09-17 19:00:00 24.8 4 Este 16 Sudeste 0 -- -- 38
2020-09-17 18:00:00 26 3 Sudeste 25 Sudeste 0 -- -- 37
2020-09-17 17:00:00 26.3 4 Sudeste 22 Sudeste 0 -- -- 34
2020-09-17 16:00:00 25.9 9 Sur 28 Sudoeste 0 -- -- 34
2020-09-17 15:00:00 26.6 9 Sudoeste 34 Sudoeste 0 -- -- 34
2020-09-17 14:00:00 25.2 9 Sudoeste 24 Sudoeste 0 -- -- 37
2020-09-17 13:00:00 24.7 9 Sudoeste 24 Sur 0 -- -- 42
2020-09-17 12:00:00 20 0 Calma 7 Oeste 0 -- -- 77
2020-09-17 11:00:00 16.7 2 Sudoeste 5 Oeste 0 -- -- 89
2020-09-17 10:00:00 15.9 0 Calma 6 Sudoeste 0 -- -- 93
2020-09-17 09:00:00 15.3 0 Calma 5 Noroeste 0 -- -- 93
2020-09-17 08:00:00 15 0 Calma -- -- 0 -- -- 93
2020-09-17 07:00:00 15.2 0 Calma 4 Nordeste 0 -- -- 92
2020-09-17 06:00:00 15.5 2 Nordeste 4 Oeste 0 -- -- 92
2020-09-17 05:00:00 16.1 0 Calma 9 Norte 0.3 -- -- 90
2020-09-17 04:00:00 16.3 3 Noroeste 12 Oeste 0 -- -- 92
2020-09-17 03:00:00 16.2 0 Calma 6 Sudoeste 0 -- -- 92
2020-09-17 02:00:00 16.1 0 Calma 7 Sudoeste 0 -- -- 92
2020-09-17 01:00:00 15.9 0 Calma 4 Nordeste 0 -- -- 90
2020-09-17 00:00:00 16.4 0 Calma 4 Nordeste 0 -- -- 89
2020-09-16 23:00:00 18 0 Calma 4 Oeste 0 -- -- 87
2020-09-16 22:00:00 19.8 0 Calma 5 Este 0 -- -- 79
2020-09-16 21:00:00 21.6 2 Nordeste 10 Este 0 -- -- 69
2020-09-16 20:00:00 23.4 3 Nordeste 15 Nordeste 0 -- -- 51
2020-09-16 19:00:00 26.2 0 Calma 13 Nordeste 0 -- -- 32
2020-09-16 18:00:00 28.4 4 Nordeste 12 Nordeste 0 -- -- 27
2020-09-16 17:00:00 27.5 0 Calma 14 Sudoeste 0 -- -- 29
2020-09-16 16:00:00 28.2 4 Oeste 14 Sudoeste 0 -- -- 26
2020-09-16 15:00:00 27.4 5 Sudoeste 16 Sudoeste 0 -- -- 28
2020-09-16 14:00:00 25.7 3 Sur 9 Oeste 0 -- -- 38
2020-09-16 13:00:00 22.7 2 Sur 8 Oeste 0 -- -- 50
2020-09-16 12:00:00 16.8 3 Sur 7 Sudoeste 0 -- -- 75
2020-09-16 11:00:00 13.5 0 Calma 6 Sudoeste 0 -- -- 93
2020-09-16 10:00:00 12 0 Calma 5 Sudeste 0 -- -- 93
2020-09-16 09:00:00 11.2 0 Calma 8 Sudoeste 0 -- -- 93
2020-09-16 08:00:00 10.8 0 Calma -- -- 0 -- -- 93
2020-09-16 07:00:00 10.7 0 Calma 0 Calma 0 -- -- 93
2020-09-16 06:00:00 10.3 0 Calma -- -- 0 -- -- 93
2020-09-16 05:00:00 10.6 0 Calma 3 Nordeste 0 -- -- 93
2020-09-16 04:00:00 11.5 0 Calma -- -- 0 -- -- 92
2020-09-16 03:00:00 11.7 0 Calma -- -- 0 -- -- 92
2020-09-16 02:00:00 12.4 0 Calma -- -- 0 -- -- 91
2020-09-16 01:00:00 13.1 0 Calma 0 Calma 0 -- -- 89
2020-09-16 00:00:00 13.8 0 Calma 3 Sudoeste 0 -- -- 87
2020-09-15 23:00:00 14.7 0 Calma 3 Noroeste 0 -- -- 80
2020-09-15 22:00:00 16.4 0 Calma 4 Nordeste 0 -- -- 72
2020-09-15 21:00:00 18.3 0 Calma 7 Noroeste 0 -- -- 61
2020-09-15 20:00:00 21.6 0 Calma 15 Sudoeste 0 -- -- 45
2020-09-15 19:00:00 26 7 Sudoeste 19 Sudoeste 0 -- -- 33
2020-09-15 18:00:00 27.1 8 Sudoeste 24 Sudoeste 0 -- -- 30
2020-09-15 17:00:00 26.9 11 Sudoeste 23 Sudoeste 0 -- -- 29
2020-09-15 16:00:00 27.1 10 Sudoeste 24 Sudoeste 0 -- -- 32
2020-09-15 15:00:00 24.9 13 Sudoeste 28 Sudoeste 0 -- -- 37
2020-09-15 14:00:00 25.9 12 Sudoeste 23 Sudoeste 0 -- -- 38
2020-09-15 13:00:00 24 0 Calma 11 Oeste 0 -- -- 46
2020-09-15 12:00:00 21.1 4 Este 11 Nordeste 0 -- -- 68
2020-09-15 11:00:00 17.2 0 Calma 6 Nordeste 0 -- -- 91
2020-09-15 10:00:00 13.7 0 Calma 7 Sudoeste 0 -- -- 93
2020-09-15 09:00:00 13.2 0 Calma 6 Sudoeste 0 -- -- 93
2020-09-15 08:00:00 12.6 0 Calma 5 Noroeste 0 -- -- 93
2020-09-15 07:00:00 13.7 0 Calma 0 Calma 0 -- -- 93
2020-09-15 06:00:00 14.5 0 Calma 7 Sudoeste 0 -- -- 93
2020-09-15 05:00:00 14.8 0 Calma 6 Nordeste 0 -- -- 93
2020-09-15 04:00:00 15.4 0 Calma 5 Sudoeste 0.1 -- -- 93
2020-09-15 03:00:00 15.8 3 Nordeste 16 Sudoeste 0.4 -- -- 92
2020-09-15 02:00:00 15.9 9 Oeste 22 Oeste 4.4 -- -- 91
2020-09-15 01:00:00 15.7 0 Calma 23 Sudoeste 1.3 -- -- 92
2020-09-15 00:00:00 15.7 0 Calma 13 Sudoeste 0.1 -- -- 91
2020-09-14 23:00:00 16.9 3 Este 36 Sudoeste 2.5 -- -- 89
2020-09-14 22:00:00 21.9 15 Sudoeste 39 Sudoeste 0 -- -- 44
2020-09-14 21:00:00 21.4 2 Nordeste 6 Sudeste 0 -- -- 45
2020-09-14 20:00:00 23.5 0 Calma 7 Sudoeste 0 -- -- 39
2020-09-14 19:00:00 27.6 4 Sudoeste 12 Sudoeste 0 -- -- 31
2020-09-14 18:00:00 28.3 3 Sur 15 Sudoeste 0 -- -- 30
2020-09-14 17:00:00 26.8 7 Sudoeste 17 Sudoeste 0 -- -- 39
2020-09-14 16:00:00 24 0 Calma 26 Sudoeste 0 -- -- 40
2020-09-14 15:00:00 29.1 10 Sudoeste 29 Sudoeste 0 -- -- 25
2020-09-14 14:00:00 28.7 10 Sudoeste 21 Sudoeste 0 -- -- 26
2020-09-14 13:00:00 28.9 10 Sudoeste 21 Sudoeste 0 -- -- 28
2020-09-14 12:00:00 26.1 4 Nordeste 14 Nordeste 0 -- -- 34
2020-09-14 11:00:00 20.7 4 Nordeste 13 Nordeste 0 -- -- 48
2020-09-14 10:00:00 12.9 0 Calma 5 Sudeste 0 -- -- 82
2020-09-14 09:00:00 11 0 Calma 4 Sudoeste 0 -- -- 90
2020-09-14 08:00:00 10.5 0 Calma 4 Sudeste 0 -- -- 90
2020-09-14 07:00:00 11.2 0 Calma 4 Nordeste 0 -- -- 88
2020-09-14 06:00:00 11.9 0 Calma 7 Sudoeste 0 -- -- 87
2020-09-14 05:00:00 12 0 Calma 9 Noroeste 0 -- -- 88
2020-09-14 04:00:00 11.6 0 Calma 6 Nordeste 0 -- -- 88
2020-09-14 03:00:00 12.3 0 Calma 6 Sudeste 0 -- -- 84
2020-09-14 02:00:00 13.4 0 Calma 5 Sur 0 -- -- 80
2020-09-14 01:00:00 15.3 0 Calma 5 Oeste 0 -- -- 70
2020-09-14 00:00:00 17.5 0 Calma 9 Noroeste 0 -- -- 53
2020-09-13 23:00:00 19.8 2 Nordeste 14 Este 0 -- -- 44
2020-09-13 22:00:00 20.9 2 Nordeste 8 Nordeste 0 -- -- 40
2020-09-13 21:00:00 23.3 0 Calma 6 Nordeste 0 -- -- 32
2020-09-13 20:00:00 26.1 0 Calma 13 Sudoeste 0 -- -- 24
2020-09-13 19:00:00 30.9 11 Sudoeste 24 Sudoeste 0 -- -- 17
2020-09-13 18:00:00 33.7 5 Sudoeste 26 Sudoeste 0 -- -- 17
2020-09-13 17:00:00 33.3 9 Sudoeste 28 Sudoeste 0 -- -- 18
2020-09-13 16:00:00 33.2 15 Sudoeste 29 Sudoeste 0 -- -- 19
2020-09-13 15:00:00 32.7 10 Sudoeste 25 Sudoeste 0 -- -- 20
2020-09-13 14:00:00 30.1 4 Sudoeste 12 Sudoeste 0 -- -- 24
2020-09-13 13:00:00 25.2 3 Sur 11 Oeste 0 -- -- 31
2020-09-13 12:00:00 20.6 2 Sudeste 6 Sur 0 -- -- 35
2020-09-13 11:00:00 15.3 3 Sudeste 7 Sudeste 0 -- -- 58
2020-09-13 10:00:00 9.6 0 Calma 5 Este 0 -- -- 86
2020-09-13 09:00:00 5.9 0 Calma 0 Calma 0 -- -- 93
2020-09-13 08:00:00 5 0 Calma 0 Calma 0 -- -- 93
2020-09-13 07:00:00 5.6 0 Calma 3 Nordeste 0 -- -- 92
2020-09-13 06:00:00 6.1 0 Calma 3 Nordeste 0 -- -- 92
2020-09-13 05:00:00 6.9 0 Calma 2 Sudoeste 0 -- -- 92
2020-09-13 04:00:00 7.5 0 Calma 0 Calma 0 -- -- 91
2020-09-13 03:00:00 8.9 0 Calma -- -- 0 -- -- 90
2020-09-13 02:00:00 9.7 0 Calma 3 Sudoeste 0 -- -- 88
2020-09-13 01:00:00 10.6 0 Calma 4 Nordeste 0 -- -- 82
2020-09-13 00:00:00 12.5 0 Calma 5 Nordeste 0 -- -- 80
2020-09-12 23:00:00 14.5 0 Calma 3 Sudoeste 0 -- -- 73
2020-09-12 22:00:00 17.2 0 Calma 7 Nordeste 0 -- -- 59
2020-09-12 21:00:00 21.6 3 Nordeste 16 Nordeste 0 -- -- 39
2020-09-12 20:00:00 24.4 4 Norte 16 Nordeste 0 -- -- 35
2020-09-12 19:00:00 27.8 7 Nordeste 18 Norte 0 -- -- 20
2020-09-12 18:00:00 29.2 5 Nordeste 20 Este 0 -- -- 17
2020-09-12 17:00:00 29.6 6 Nordeste 19 Nordeste 0 -- -- 17
2020-09-12 16:00:00 29.4 5 Nordeste 18 Este 0 -- -- 17
2020-09-12 15:00:00 28.9 6 Nordeste 17 Nordeste 0 -- -- 23
2020-09-12 14:00:00 27.3 5 Nordeste 15 Nordeste 0 -- -- 32
2020-09-12 13:00:00 21.5 2 Sudeste 9 Sudeste 0 -- -- 55
2020-09-12 12:00:00 16.8 3 Sudeste 9 Sudeste 0 -- -- 70
2020-09-12 11:00:00 12.1 0 Calma 7 Sudoeste 0 -- -- 94
2020-09-12 10:00:00 11.3 0 Calma 7 Oeste 0 -- -- 94
2020-09-12 09:00:00 10.9 0 Calma 4 Oeste 0 -- -- 94
2020-09-12 08:00:00 10.5 0 Calma 6 Sudoeste 0 -- -- 94
2020-09-12 07:00:00 11.3 0 Calma 3 Nordeste 0 -- -- 94
2020-09-12 06:00:00 11.1 0 Calma 3 Norte 0 -- -- 94
2020-09-12 05:00:00 10.9 0 Calma 4 Oeste 0 -- -- 94
2020-09-12 04:00:00 11.4 0 Calma -- -- 0 -- -- 93
2020-09-12 03:00:00 11.7 0 Calma 0 Calma 0 -- -- 92
2020-09-12 02:00:00 11.9 0 Calma -- -- 0 -- -- 91
2020-09-12 01:00:00 13.2 0 Calma -- -- 0 -- -- 91
2020-09-12 00:00:00 14.4 0 Calma 2 Norte 0 -- -- 90
2020-09-11 23:00:00 15.3 0 Calma 4 Nordeste 0 -- -- 88
2020-09-11 22:00:00 18.1 3 Este 14 Norte 0 -- -- 82
2020-09-11 21:00:00 19.7 6 Nordeste 16 Nordeste 0 -- -- 72
2020-09-11 20:00:00 22.8 6 Nordeste 16 Nordeste 0 -- -- 52
2020-09-11 19:00:00 25.8 8 Nordeste 21 Nordeste 0 -- -- 30
2020-09-11 18:00:00 27.5 6 Nordeste 21 Nordeste 0 -- -- 24
2020-09-11 17:00:00 28.8 4 Nordeste 19 Nordeste 0 -- -- 23
2020-09-11 16:00:00 29 4 Nordeste 13 Nordeste 0 -- -- 23
2020-09-11 15:00:00 27.9 3 Nordeste 13 Nordeste 0 -- -- 24
2020-09-11 14:00:00 26.4 3 Este 13 Nordeste 0 -- -- 31
2020-09-11 13:00:00 23.5 5 Nordeste 12 Nordeste 0 -- -- 43
2020-09-11 12:00:00 18.7 2 Sudeste 8 Sudeste 0 -- -- 57
2020-09-11 11:00:00 11.4 0 Calma 7 Sudoeste 0 -- -- 92
2020-09-11 10:00:00 9.5 2 Sudoeste 6 Sudoeste 0 -- -- 94
2020-09-11 09:00:00 8.4 0 Calma 0 Calma 0 -- -- 94
2020-09-11 08:00:00 8.2 0 Calma -- -- 0 -- -- 94
2020-09-11 07:00:00 8.5 0 Calma 4 Sudoeste 0 -- -- 94
2020-09-11 06:00:00 8.6 0 Calma 3 Sudoeste 0 -- -- 93
2020-09-11 05:00:00 8.7 0 Calma 4 Sudoeste 0 -- -- 93
2020-09-11 04:00:00 9 0 Calma 3 Nordeste 0 -- -- 92
2020-09-11 03:00:00 9.4 0 Calma 3 Nordeste 0 -- -- 92
2020-09-11 02:00:00 10.7 0 Calma 2 Oeste 0 -- -- 89
2020-09-11 01:00:00 11.8 0 Calma 2 Noroeste 0 -- -- 88
2020-09-11 00:00:00 13.3 0 Calma 3 Sudoeste 0 -- -- 88
2020-09-10 23:00:00 15.1 0 Calma 13 Nordeste 0 -- -- 85
2020-09-10 22:00:00 16.7 8 Nordeste 17 Nordeste 0 -- -- 79
2020-09-10 21:00:00 18.3 6 Nordeste 26 Norte 0 -- -- 68
2020-09-10 20:00:00 21 8 Nordeste 19 Nordeste 0 -- -- 52
2020-09-10 19:00:00 24.7 5 Nordeste 21 Nordeste 0 -- -- 38
2020-09-10 18:00:00 25.5 4 Norte 23 Nordeste 0 -- -- 32
2020-09-10 17:00:00 27.8 8 Nordeste 23 Nordeste 0 -- -- 24
2020-09-10 16:00:00 28 3 Norte 17 Nordeste 0 -- -- 25
2020-09-10 15:00:00 27.8 3 Este 18 Sudeste 0 -- -- 26
2020-09-10 14:00:00 26 4 Nordeste 15 Este 0 -- -- 29
2020-09-10 13:00:00 24.2 5 Nordeste 15 Nordeste 0 -- -- 34
2020-09-10 12:00:00 18.3 3 Sur 8 Sudeste 0 -- -- 56
2020-09-10 11:00:00 12.6 0 Calma 6 Sudeste 0 -- -- 90
2020-09-10 10:00:00 11 3 Sudoeste 7 Sudoeste 0 -- -- 93
2020-09-10 09:00:00 11.1 5 Sudoeste 6 Sudoeste 0 -- -- 93
2020-09-10 08:00:00 10.3 0 Calma 7 Sudoeste 0 -- -- 93
2020-09-10 07:00:00 12 5 Sudoeste 7 Sudoeste 0 -- -- 93
2020-09-10 06:00:00 11.9 0 Calma 0 Calma 0 -- -- 93
2020-09-10 05:00:00 12.8 0 Calma 2 Sudoeste 0 -- -- 93
2020-09-10 04:00:00 12.5 0 Calma 3 Nordeste 0 -- -- 92
2020-09-10 03:00:00 12 0 Calma 4 Nordeste 0 -- -- 92
2020-09-10 02:00:00 11.8 0 Calma 6 Oeste 0 -- -- 93
2020-09-10 01:00:00 11.8 0 Calma 5 Sudeste 0 -- -- 92
2020-09-10 00:00:00 12.8 0 Calma 6 Norte 0 -- -- 91
2020-09-09 23:00:00 14.2 0 Calma 5 Norte 0 -- -- 88
2020-09-09 22:00:00 16.6 0 Calma 11 Este 0 -- -- 84
2020-09-09 21:00:00 18.1 4 Este 16 Nordeste 0 -- -- 74
2020-09-09 20:00:00 20.2 5 Nordeste 27 Nordeste 0 -- -- 57
2020-09-09 19:00:00 22.8 9 Nordeste 30 Nordeste 0 -- -- 42
2020-09-09 18:00:00 24.9 10 Nordeste 26 Nordeste 0 -- -- 34
2020-09-09 17:00:00 26.6 7 Nordeste 24 Nordeste 0 -- -- 27
2020-09-09 16:00:00 27.7 6 Nordeste 22 Nordeste 0 -- -- 24
2020-09-09 15:00:00 28.2 6 Nordeste 26 Nordeste 0 -- -- 23
2020-09-09 14:00:00 26.7 3 Nordeste 14 Norte 0 -- -- 24
2020-09-09 13:00:00 23.5 3 Sudeste 9 Sudeste 0 -- -- 32
2020-09-09 12:00:00 18.7 3 Este 7 Este 0 -- -- 47
2020-09-09 11:00:00 11.5 0 Calma 8 Sudeste 0 -- -- 75
2020-09-09 10:00:00 7.2 0 Calma 5 Sudoeste 0 -- -- 95
2020-09-09 09:00:00 6.3 2 Sudoeste 5 Oeste 0 -- -- 95
2020-09-09 08:00:00 5.2 0 Calma 6 Este 0 -- -- 95
2020-09-09 07:00:00 5.3 0 Calma -- -- 0 -- -- 94
2020-09-09 06:00:00 4.9 0 Calma -- -- 0 -- -- 93
2020-09-09 05:00:00 5.6 0 Calma -- -- 0 -- -- 93
2020-09-09 04:00:00 6.4 0 Calma -- -- 0 -- -- 92
2020-09-09 03:00:00 7.1 0 Calma -- -- 0 -- -- 92
2020-09-09 02:00:00 8.3 0 Calma -- -- 0 -- -- 90
2020-09-09 01:00:00 9.5 0 Calma -- -- 0 -- -- 88
2020-09-09 00:00:00 10.7 0 Calma -- -- 0 -- -- 84
2020-09-08 23:00:00 11.9 0 Calma 0 Calma 0 -- -- 79
2020-09-08 22:00:00 14.5 0 Calma 8 Este 0 -- -- 71
2020-09-08 21:00:00 17.3 3 Este 15 Nordeste 0 -- -- 53
2020-09-08 20:00:00 20.3 4 Nordeste 16 Nordeste 0 -- -- 39
2020-09-08 19:00:00 23.2 6 Nordeste 18 Nordeste 0 -- -- 29
2020-09-08 18:00:00 25.2 6 Nordeste 20 Nordeste 0 -- -- 25
2020-09-08 17:00:00 25.4 8 Nordeste 20 Nordeste 0 -- -- 23
2020-09-08 16:00:00 24.7 9 Nordeste 21 Nordeste 0 -- -- 25
2020-09-08 15:00:00 23.7 7 Nordeste 22 Nordeste 0 -- -- 27
2020-09-08 14:00:00 22.7 6 Nordeste 23 Nordeste 0 -- -- 29
2020-09-08 13:00:00 21.2 8 Nordeste 23 Nordeste 0 -- -- 34
2020-09-08 12:00:00 19.6 8 Nordeste 20 Nordeste 0 -- -- 38
2020-09-08 11:00:00 16.4 6 Nordeste 17 Nordeste 0 -- -- 53
2020-09-08 10:00:00 10.6 2 Sur 5 Sur 0 -- -- 82
2020-09-08 09:00:00 6.8 0 Calma 3 Sudeste 0 -- -- 94
2020-09-08 08:00:00 6.6 0 Calma 5 Sudeste 0 -- -- 94
2020-09-08 07:00:00 7.5 0 Calma 4 Este 0 -- -- 95
2020-09-08 06:00:00 7.1 0 Calma 8 Sudeste 0 -- -- 95
2020-09-08 05:00:00 6.5 0 Calma 9 Sudoeste 0 -- -- 95
2020-09-08 04:00:00 5.6 0 Calma 5 Oeste 0 -- -- 93
2020-09-08 03:00:00 6.6 0 Calma 3 Sudoeste 0 -- -- 93
2020-09-08 02:00:00 7.4 0 Calma 5 Nordeste 0 -- -- 92
2020-09-08 01:00:00 7.6 0 Calma 5 Nordeste 0 -- -- 92
2020-09-08 00:00:00 8.6 0 Calma 7 Este 0 -- -- 89
2020-09-07 23:00:00 10.1 0 Calma 7 Nordeste 0 -- -- 84
2020-09-07 22:00:00 11.5 4 Este 16 Nordeste 0 -- -- 75
2020-09-07 21:00:00 13.3 7 Nordeste 20 Nordeste 0 -- -- 61
2020-09-07 20:00:00 15.2 5 Nordeste 23 Nordeste 0 -- -- 51
2020-09-07 19:00:00 17.5 7 Nordeste 23 Nordeste 0 -- -- 47
2020-09-07 18:00:00 19 4 Norte 29 Nordeste 0 -- -- 46
2020-09-07 17:00:00 18.2 11 Nordeste 26 Nordeste 0 -- -- 46
2020-09-07 16:00:00 17.6 5 Nordeste 28 Nordeste 0 -- -- 51
2020-09-07 15:00:00 17.1 6 Nordeste 24 Nordeste 0 -- -- 52
2020-09-07 14:00:00 17.3 7 Nordeste 26 Nordeste 0 -- -- 52
2020-09-07 13:00:00 17.5 7 Nordeste 25 Nordeste 0 -- -- 52
2020-09-07 12:00:00 15.8 6 Nordeste 31 Norte 0 -- -- 53
2020-09-07 11:00:00 15.7 8 Nordeste 24 Nordeste 0 -- -- 55
2020-09-07 10:00:00 13.6 8 Nordeste 21 Nordeste 0 -- -- 70
2020-09-07 09:00:00 11.4 5 Nordeste 20 Nordeste 0 -- -- 88
2020-09-07 08:00:00 8.5 0 Calma 4 Oeste 0 -- -- 91
2020-09-07 07:00:00 9.8 0 Calma 13 Norte 0 -- -- 86
2020-09-07 06:00:00 11.1 4 Nordeste 17 Nordeste 0 -- -- 81
2020-09-07 05:00:00 12.2 4 Nordeste 14 Nordeste 0 -- -- 79
2020-09-07 04:00:00 12.6 0 Calma 5 Sur 0 -- -- 79
2020-09-07 03:00:00 12.6 0 Calma 6 Sudeste 0 -- -- 79
2020-09-07 02:00:00 12.8 2 Este 11 Nordeste 0 -- -- 78
2020-09-07 01:00:00 13.3 2 Nordeste 12 Nordeste 0 -- -- 76
2020-09-07 00:00:00 13.3 0 Calma 13 Nordeste 0 -- -- 76
2020-09-06 23:00:00 13.5 4 Nordeste 14 Nordeste 0 -- -- 77
2020-09-06 22:00:00 13.2 0 Calma 12 Este 0 -- -- 76
2020-09-06 21:00:00 13.5 2 Nordeste 18 Nordeste 0 -- -- 70
2020-09-06 20:00:00 14.5 5 Nordeste 27 Nordeste 0 -- -- 60
2020-09-06 19:00:00 16.9 6 Nordeste 29 Nordeste 0 -- -- 50
2020-09-06 18:00:00 15.9 6 Nordeste 24 Norte 0 -- -- 55
2020-09-06 17:00:00 18.6 8 Nordeste 36 Nordeste 0 -- -- 46
2020-09-06 16:00:00 19.6 5 Norte 30 Nordeste 0 -- -- 41
2020-09-06 15:00:00 17.8 10 Nordeste 33 Nordeste 0 -- -- 46
2020-09-06 14:00:00 18 6 Nordeste 24 Nordeste 0 -- -- 49
2020-09-06 13:00:00 17.5 5 Nordeste 26 Nordeste 0 -- -- 56
2020-09-06 12:00:00 16 6 Nordeste 21 Nordeste 0 -- -- 66
2020-09-06 11:00:00 14.1 7 Nordeste 21 Nordeste 0 -- -- 78
2020-09-06 10:00:00 13.2 5 Nordeste 18 Nordeste 0 -- -- 88
2020-09-06 09:00:00 13.1 6 Nordeste 19 Nordeste 0 -- -- 89
2020-09-06 08:00:00 13.3 5 Nordeste 12 Nordeste 0.1 -- -- 92
2020-09-06 07:00:00 13.5 3 Nordeste 11 Nordeste 0 -- -- 92
2020-09-06 06:00:00 14.2 4 Nordeste 15 Nordeste 0 -- -- 86
2020-09-06 05:00:00 14.3 4 Nordeste 14 Nordeste 0 -- -- 86
2020-09-06 04:00:00 14.7 4 Nordeste 13 Nordeste 0 -- -- 86
2020-09-06 03:00:00 14.9 3 Este 16 Nordeste 0 -- -- 84
2020-09-06 02:00:00 15.1 3 Nordeste 12 Nordeste 0 -- -- 82
2020-09-06 01:00:00 15.2 2 Norte 14 Nordeste 0 -- -- 82
2020-09-06 00:00:00 15.1 3 Norte 17 Nordeste 0 -- -- 84
2020-09-05 23:00:00 15.8 4 Nordeste 18 Nordeste 0 -- -- 81
2020-09-05 22:00:00 16.1 5 Nordeste 16 Nordeste 0 -- -- 79
2020-09-05 21:00:00 16.3 5 Nordeste 16 Nordeste 0 -- -- 76
2020-09-05 20:00:00 17.2 3 Norte 21 Nordeste 0 -- -- 70
2020-09-05 19:00:00 17.5 8 Nordeste 27 Nordeste 0 -- -- 68
2020-09-05 18:00:00 19.4 10 Nordeste 32 Nordeste 0 -- -- 58
2020-09-05 17:00:00 18.7 13 Nordeste 29 Nordeste 0 -- -- 63
2020-09-05 16:00:00 19.4 10 Nordeste 26 Nordeste 0 -- -- 60
2020-09-05 15:00:00 21.6 5 Nordeste 30 Nordeste 0 -- -- 52
2020-09-05 14:00:00 21.4 4 Norte 19 Nordeste 0 -- -- 52
2020-09-05 13:00:00 20 5 Nordeste 23 Nordeste 0 -- -- 61
2020-09-05 12:00:00 19 9 Nordeste 22 Nordeste 0 -- -- 66
2020-09-05 11:00:00 18.3 8 Nordeste 23 Nordeste 0 -- -- 71
2020-09-05 10:00:00 17.6 8 Nordeste 22 Nordeste 0 -- -- 79
2020-09-05 09:00:00 12.5 2 Oeste 6 Sudoeste 0 -- -- 88
2020-09-05 08:00:00 10.8 0 Calma 7 Sudoeste 0 -- -- 90
2020-09-05 07:00:00 10.8 3 Sudoeste 7 Sudoeste 0 -- -- 91
2020-09-05 06:00:00 9.7 4 Sudoeste 6 Sudoeste 0 -- -- 92
2020-09-05 05:00:00 9.7 0 Calma 4 Sudoeste 0 -- -- 91
2020-09-05 04:00:00 10.5 0 Calma 4 Oeste 0 -- -- 88
2020-09-05 03:00:00 11 0 Calma -- -- 0 -- -- 87
2020-09-05 02:00:00 11.4 0 Calma -- -- 0 -- -- 81
2020-09-05 01:00:00 13.2 0 Calma -- -- 0 -- -- 78
2020-09-05 00:00:00 14.5 0 Calma 4 Norte 0 -- -- 66
2020-09-04 23:00:00 16.8 0 Calma 4 Oeste 0 -- -- 55
2020-09-04 22:00:00 19.3 0 Calma 8 Sudeste 0 -- -- 44
2020-09-04 21:00:00 22.4 0 Calma 9 Nordeste 0 -- -- 34
2020-09-04 20:00:00 26.3 3 Este 20 Nordeste 0 -- -- 28
2020-09-04 19:00:00 30 3 Norte 18 Nordeste 0 -- -- 19
2020-09-04 18:00:00 33.1 7 Sudoeste 22 Sudoeste 0 -- -- 14
2020-09-04 17:00:00 32.8 10 Sudoeste 24 Sudoeste 0 -- -- 15
2020-09-04 16:00:00 32.2 9 Sudoeste 23 Sudoeste 0 -- -- 15
2020-09-04 15:00:00 33.2 7 Sudoeste 23 Sudoeste 0 -- -- 15
2020-09-04 14:00:00 30.4 6 Oeste 17 Sudoeste 0 -- -- 19
2020-09-04 13:00:00 27.3 0 Calma 8 Sudoeste 0 -- -- 29
2020-09-04 12:00:00 21.8 3 Sudoeste 8 Sudoeste 0 -- -- 37
2020-09-04 11:00:00 15.9 3 Sudoeste 8 Oeste 0 -- -- 58
2020-09-04 10:00:00 10.4 0 Calma 4 Nordeste 0 -- -- 85
2020-09-04 09:00:00 6.4 0 Calma -- -- 0 -- -- 93
2020-09-04 08:00:00 5.4 0 Calma 0 Calma 0 -- -- 92
2020-09-04 07:00:00 5.7 0 Calma 0 Calma 0 -- -- 92
2020-09-04 06:00:00 6.4 0 Calma 3 Nordeste 0 -- -- 92
2020-09-04 05:00:00 7.2 0 Calma -- -- 0 -- -- 92
2020-09-04 04:00:00 7.9 0 Calma -- -- 0 -- -- 91
2020-09-04 03:00:00 8.7 0 Calma 4 Nordeste 0 -- -- 89
2020-09-04 02:00:00 9.7 0 Calma -- -- 0 -- -- 87
2020-09-04 01:00:00 11.2 0 Calma -- -- 0 -- -- 80
2020-09-04 00:00:00 13.2 0 Calma 4 Norte 0 -- -- 72
2020-09-03 23:00:00 14.7 0 Calma 7 Norte 0 -- -- 61
2020-09-03 22:00:00 16.7 0 Calma 9 Este 0 -- -- 54
2020-09-03 21:00:00 20.8 4 Nordeste 15 Nordeste 0 -- -- 42
2020-09-03 20:00:00 24.2 2 Este 19 Nordeste 0 -- -- 33
2020-09-03 19:00:00 27.4 7 Nordeste 22 Nordeste 0 -- -- 28
2020-09-03 18:00:00 29.2 11 Nordeste 25 Nordeste 0 -- -- 23
2020-09-03 17:00:00 31.3 0 Calma 15 Oeste 0 -- -- 17
2020-09-03 16:00:00 30.2 0 Calma 13 Sudoeste 0 -- -- 18
2020-09-03 15:00:00 30.2 2 Sudoeste 13 Sur 0 -- -- 18
2020-09-03 14:00:00 27.3 3 Sur 11 Sudoeste 0 -- -- 30
2020-09-03 13:00:00 21.9 3 Sur 8 Sudeste 0 -- -- 46
2020-09-03 12:00:00 15.5 3 Este 9 Sudeste 0 -- -- 70
2020-09-03 11:00:00 11.3 0 Calma 7 Sudoeste 0 -- -- 94
2020-09-03 10:00:00 10.3 2 Sudoeste 10 Sur 0 -- -- 94
2020-09-03 09:00:00 9.9 0 Calma 4 Sur 0 -- -- 94
2020-09-03 08:00:00 9.3 0 Calma 4 Nordeste 0 -- -- 94
2020-09-03 07:00:00 9 0 Calma 4 Nordeste 0 -- -- 94
2020-09-03 06:00:00 8.4 0 Calma 3 Noroeste 0 -- -- 94
2020-09-03 05:00:00 8.4 0 Calma 0 Calma 0 -- -- 94
2020-09-03 04:00:00 9 0 Calma 3 Noroeste 0 -- -- 94
2020-09-03 03:00:00 8.8 0 Calma 2 Oeste 0 -- -- 92
2020-09-03 02:00:00 9.3 0 Calma 4 Oeste 0 -- -- 92
2020-09-03 01:00:00 10.3 0 Calma -- -- 0 -- -- 92
2020-09-03 00:00:00 11.6 0 Calma 7 Nordeste 0 -- -- 90
2020-09-02 23:00:00 13.7 0 Calma 12 Nordeste 0 -- -- 86
2020-09-02 22:00:00 15.5 4 Nordeste 15 Nordeste 0 -- -- 79
2020-09-02 21:00:00 17.2 7 Este 17 Este 0 -- -- 69
2020-09-02 20:00:00 19.3 6 Nordeste 18 Nordeste 0 -- -- 54
2020-09-02 19:00:00 23.1 3 Norte 20 Nordeste 0 -- -- 39
2020-09-02 18:00:00 23.7 5 Nordeste 23 Nordeste 0 -- -- 33
2020-09-02 17:00:00 24.2 7 Nordeste 23 Nordeste 0 -- -- 33
2020-09-02 16:00:00 24.9 7 Nordeste 23 Sudeste 0 -- -- 30
2020-09-02 15:00:00 24.5 3 Sudeste 23 Este 0 -- -- 32
2020-09-02 14:00:00 23 6 Este 17 Nordeste 0 -- -- 35
2020-09-02 13:00:00 21.7 5 Nordeste 20 Este 0 -- -- 38
2020-09-02 12:00:00 20.8 6 Este 18 Nordeste 0 -- -- 43
2020-09-02 11:00:00 17.9 5 Nordeste 12 Nordeste 0 -- -- 56
2020-09-02 10:00:00 12.4 0 Calma 4 Sudoeste 0 -- -- 82
2020-09-02 09:00:00 9.7 0 Calma -- -- 0 -- -- 94
2020-09-02 08:00:00 8.5 0 Calma -- -- 0 -- -- 94
2020-09-02 07:00:00 7.8 0 Calma -- -- 0 -- -- 94
2020-09-02 06:00:00 7.4 0 Calma -- -- 0 -- -- 93
2020-09-02 05:00:00 7.8 0 Calma -- -- 0 -- -- 93
2020-09-02 04:00:00 8.3 0 Calma 5 Nordeste 0 -- -- 93
2020-09-02 03:00:00 8.8 0 Calma 5 Nordeste 0 -- -- 93
2020-09-02 02:00:00 9.5 0 Calma 5 Nordeste 0 -- -- 92
2020-09-02 01:00:00 10.4 0 Calma 3 Nordeste 0 -- -- 92
2020-09-02 00:00:00 11.1 0 Calma 3 Sudoeste 0 -- -- 90
2020-09-01 23:00:00 12 0 Calma 12 Nordeste 0 -- -- 88
2020-09-01 22:00:00 13.7 0 Calma 18 Nordeste 0 -- -- 80
2020-09-01 21:00:00 14.9 7 Nordeste 22 Nordeste 0 -- -- 69
2020-09-01 20:00:00 16.3 7 Nordeste 24 Nordeste 0 -- -- 56
2020-09-01 19:00:00 18.9 9 Nordeste 36 Nordeste 0 -- -- 45
2020-09-01 18:00:00 20.8 11 Nordeste 28 Nordeste 0 -- -- 38
2020-09-01 17:00:00 23.6 5 Nordeste 27 Nordeste 0 -- -- 31
2020-09-01 16:00:00 23.5 8 Nordeste 27 Nordeste 0 -- -- 29
2020-09-01 15:00:00 23 7 Nordeste 24 Nordeste 0 -- -- 29
2020-09-01 14:00:00 23.5 8 Nordeste 24 Este 0 -- -- 30
2020-09-01 13:00:00 22.3 5 Este 13 Este 0 -- -- 34
2020-09-01 12:00:00 18.8 2 Este 8 Sudeste 0 -- -- 44
2020-09-01 11:00:00 15.2 2 Sudeste 8 Este 0 -- -- 58
2020-09-01 10:00:00 10.2 0 Calma 6 Este 0 -- -- 79
2020-09-01 09:00:00 7.2 0 Calma 4 Sudoeste 0 -- -- 93
2020-09-01 08:00:00 6.3 0 Calma 5 Nordeste 0 -- -- 92
2020-09-01 07:00:00 6.3 0 Calma 4 Nordeste 0 -- -- 92
2020-09-01 06:00:00 7.1 0 Calma 3 Sudoeste 0 -- -- 91
2020-09-01 05:00:00 7.2 0 Calma 3 Sudoeste 0 -- -- 91
2020-09-01 04:00:00 8 0 Calma 3 Norte 0 -- -- 88
2020-09-01 03:00:00 8.9 0 Calma 7 Oeste 0 -- -- 85
2020-09-01 02:00:00 8.9 0 Calma 4 Noroeste 0 -- -- 79
2020-09-01 01:00:00 9.9 0 Calma 4 Noroeste 0 -- -- 75
2020-09-01 00:00:00 11.5 0 Calma 2 Este 0 -- -- 73
2020-08-31 23:00:00 12.6 0 Calma 4 Noroeste 0 -- -- 69
2020-08-31 22:00:00 13.5 0 Calma 4 Nordeste 0 -- -- 61
2020-08-31 21:00:00 15.7 0 Calma 9 Este 0 -- -- 48
2020-08-31 20:00:00 18.6 0 Calma 20 Nordeste 0 -- -- 39
2020-08-31 19:00:00 19.8 5 Nordeste 17 Nordeste 0 -- -- 33
2020-08-31 18:00:00 22.9 0 Calma 15 Sudoeste 0 -- -- 24
2020-08-31 17:00:00 22.7 6 Sudoeste 17 Sudoeste 0 -- -- 24
2020-08-31 16:00:00 22.7 3 Sudoeste 21 Sudoeste 0 -- -- 24
2020-08-31 15:00:00 22.2 6 Oeste 19 Sudoeste 0 -- -- 24
2020-08-31 14:00:00 20.6 5 Sudoeste 19 Oeste 0 -- -- 29
2020-08-31 13:00:00 19.4 6 Sudoeste 15 Sudoeste 0 -- -- 39
2020-08-31 12:00:00 16 4 Sudeste 13 Sudeste 0 -- -- 52
2020-08-31 11:00:00 11.7 3 Sudeste 8 Este 0 -- -- 70
2020-08-31 10:00:00 7.1 3 Sudoeste 8 Sudoeste 0 -- -- 90
2020-08-31 09:00:00 5.7 5 Sudoeste 7 Sudoeste 0 -- -- 95
2020-08-31 08:00:00 5.2 0 Calma 3 Sudoeste 0 -- -- 95
2020-08-31 07:00:00 4.3 0 Calma 4 Sudoeste 0 -- -- 95
2020-08-31 06:00:00 4.6 0 Calma 5 Sudoeste 0 -- -- 95
2020-08-31 05:00:00 4.9 2 Sudoeste 7 Sudoeste 0 -- -- 95
2020-08-31 04:00:00 4.7 0 Calma 4 Norte 0 -- -- 94
2020-08-31 03:00:00 4.1 0 Calma 3 Oeste 0 -- -- 93
2020-08-31 02:00:00 4.5 0 Calma 4 Oeste 0 -- -- 93
2020-08-31 01:00:00 5.5 0 Calma 4 Norte 0 -- -- 92
2020-08-31 00:00:00 6.3 0 Calma 5 Norte 0 -- -- 90
2020-08-30 23:00:00 7.4 0 Calma -- -- 0 -- -- 88
2020-08-30 22:00:00 8.7 0 Calma 5 Nordeste 0 -- -- 81
2020-08-30 21:00:00 10.8 0 Calma 18 Nordeste 0 -- -- 69
2020-08-30 20:00:00 12.2 5 Nordeste 28 Nordeste 0 -- -- 63
2020-08-30 19:00:00 12.9 9 Nordeste 31 Nordeste 0 -- -- 60
2020-08-30 18:00:00 15.9 10 Nordeste 26 Nordeste 0 -- -- 49
2020-08-30 17:00:00 16.3 10 Nordeste 25 Nordeste 0 -- -- 47
2020-08-30 16:00:00 16.5 5 Nordeste 19 Nordeste 0 -- -- 50
2020-08-30 15:00:00 14.6 3 Nordeste 24 Nordeste 0 -- -- 54
2020-08-30 14:00:00 14.8 8 Nordeste 21 Nordeste 0 -- -- 48
2020-08-30 13:00:00 14.5 5 Nordeste 24 Este 0 -- -- 51
2020-08-30 12:00:00 13.2 3 Norte 15 Nordeste 0 -- -- 59
2020-08-30 11:00:00 11.5 0 Calma 16 Nordeste 0 -- -- 75
2020-08-30 10:00:00 10.9 2 Sudoeste 6 Sudoeste 0 -- -- 86
2020-08-30 09:00:00 8.6 0 Calma 2 Noroeste 0 -- -- 94
2020-08-30 08:00:00 8 0 Calma 7 Sudoeste 0 -- -- 94
2020-08-30 07:00:00 8.6 2 Sudoeste 6 Sudoeste 0 -- -- 94
2020-08-30 06:00:00 8.4 0 Calma 5 Oeste 0 -- -- 94
2020-08-30 05:00:00 8.8 0 Calma 3 Sudoeste 0 -- -- 94
2020-08-30 04:00:00 9 0 Calma 5 Nordeste 1.2 -- -- 94
2020-08-30 03:00:00 9 0 Calma 4 Noroeste 0 -- -- 93
2020-08-30 02:00:00 10 0 Calma 5 Sudoeste 0 -- -- 92
2020-08-30 01:00:00 10.1 0 Calma 10 Nordeste 0.1 -- -- 88
2020-08-30 00:00:00 10.2 3 Norte 14 Nordeste 0 -- -- 84
2020-08-29 23:00:00 10 0 Calma 11 Nordeste 0 -- -- 84
2020-08-29 22:00:00 10.6 0 Calma 12 Norte 0 -- -- 80
2020-08-29 21:00:00 10.4 0 Calma 15 Nordeste 0 -- -- 81
2020-08-29 20:00:00 11.6 5 Nordeste 19 Nordeste 0.1 -- -- 79
2020-08-29 19:00:00 12.7 0 Calma 18 Oeste 0.5 -- -- 83
2020-08-29 18:00:00 13.2 3 Nordeste 17 Nordeste 0.4 -- -- 82
2020-08-29 17:00:00 16.1 5 Noroeste 23 Nordeste 0 -- -- 53
2020-08-29 16:00:00 15.2 3 Nordeste 28 Oeste 0 -- -- 63
2020-08-29 15:00:00 18.8 3 Noroeste 25 Oeste 0 -- -- 45
2020-08-29 14:00:00 15.4 0 Calma 22 Oeste 0 -- -- 54
2020-08-29 13:00:00 15.2 4 Noroeste 21 Oeste 0 -- -- 53
2020-08-29 12:00:00 14.6 0 Calma 7 Sudoeste 0 -- -- 54
2020-08-29 11:00:00 12.1 0 Calma 8 Sudoeste 0 -- -- 71
2020-08-29 10:00:00 9.3 4 Oeste 8 Sudoeste 0 -- -- 79
2020-08-29 09:00:00 5.4 0 Calma 7 Sudoeste 0 -- -- 96
2020-08-29 08:00:00 4.6 0 Calma 5 Sudeste 0 -- -- 96
2020-08-29 07:00:00 4.2 0 Calma 4 Oeste 0 -- -- 95
2020-08-29 06:00:00 4.8 0 Calma 5 Nordeste 0 -- -- 95
2020-08-29 05:00:00 5.6 0 Calma -- -- 0 -- -- 93
2020-08-29 04:00:00 6 0 Calma -- -- 0 -- -- 91
2020-08-29 03:00:00 6.8 0 Calma 5 Noroeste 0 -- -- 88
2020-08-29 02:00:00 8.1 0 Calma 6 Este 0 -- -- 84
2020-08-29 01:00:00 9.9 0 Calma 8 Nordeste 0 -- -- 76
2020-08-29 00:00:00 12 0 Calma 13 Nordeste 0 -- -- 70
2020-08-28 23:00:00 12.9 4 Este 17 Este 0 -- -- 71
2020-08-28 22:00:00 13.4 5 Este 30 Nordeste 0 -- -- 71
2020-08-28 21:00:00 13.6 9 Nordeste 31 Este 0 -- -- 71
2020-08-28 20:00:00 13.7 11 Nordeste 30 Nordeste 0 -- -- 71
2020-08-28 19:00:00 14.3 10 Nordeste 32 Nordeste 0 -- -- 67
2020-08-28 18:00:00 15.6 6 Nordeste 33 Nordeste 0 -- -- 64
2020-08-28 17:00:00 16 12 Nordeste 31 Nordeste 0 -- -- 61
2020-08-28 16:00:00 16.3 10 Nordeste 33 Nordeste 0 -- -- 59
2020-08-28 15:00:00 17.7 10 Nordeste 30 Nordeste 0 -- -- 54
2020-08-28 14:00:00 18 9 Nordeste 29 Nordeste 0 -- -- 54
2020-08-28 13:00:00 17.3 10 Nordeste 27 Nordeste 0 -- -- 58
2020-08-28 12:00:00 17 5 Nordeste 26 Nordeste 0 -- -- 63
2020-08-28 11:00:00 15.5 7 Nordeste 24 Nordeste 0 -- -- 73
2020-08-28 10:00:00 15.7 9 Nordeste 23 Nordeste 0 -- -- 73
2020-08-28 09:00:00 15.3 6 Nordeste 20 Nordeste 0 -- -- 77
2020-08-28 08:00:00 15.8 4 Nordeste 21 Norte 0 -- -- 78
2020-08-28 07:00:00 16.8 3 Nordeste 14 Nordeste 0 -- -- 81
2020-08-28 06:00:00 17.1 7 Nordeste 22 Nordeste 0 -- -- 81
2020-08-28 05:00:00 18 0 Calma 6 Sudeste 0 -- -- 88
2020-08-28 04:00:00 17.9 0 Calma 9 Este 0 -- -- 89
2020-08-28 03:00:00 17.8 2 Nordeste 13 Nordeste 0 -- -- 90
2020-08-28 02:00:00 18.8 3 Nordeste 8 Nordeste 0 -- -- 82
2020-08-28 01:00:00 18.8 0 Calma 6 Nordeste 0 -- -- 82
2020-08-28 00:00:00 18.7 0 Calma 10 Norte 0 -- -- 83
2020-08-27 23:00:00 18.7 6 Este 19 Este 0 -- -- 82
2020-08-27 22:00:00 18.9 6 Nordeste 19 Nordeste 0 -- -- 80
2020-08-27 21:00:00 19.3 8 Nordeste 24 Nordeste 0 -- -- 80
2020-08-27 20:00:00 20.6 8 Nordeste 25 Nordeste 0 -- -- 75
2020-08-27 19:00:00 23.4 6 Nordeste 36 Nordeste 0 -- -- 61
2020-08-27 18:00:00 25.6 12 Nordeste 31 Nordeste 0 -- -- 51
2020-08-27 17:00:00 28.2 10 Nordeste 48 Nordeste 0 -- -- 43
2020-08-27 16:00:00 29.8 7 Nordeste 26 Norte 0 -- -- 37
2020-08-27 15:00:00 31.3 3 Sudeste 14 Sudoeste 0 -- -- 29
2020-08-27 14:00:00 29.4 3 Sur 13 Sudoeste 0 -- -- 35
2020-08-27 13:00:00 27.7 3 Sur 12 Sudeste 0 -- -- 43
2020-08-27 12:00:00 25.9 4 Este 12 Este 0 -- -- 50
2020-08-27 11:00:00 21.4 3 Sudoeste 8 Sudoeste 0 -- -- 68
2020-08-27 10:00:00 18.1 0 Calma 6 Este 0 -- -- 85
2020-08-27 09:00:00 17 0 Calma 3 Oeste 0 -- -- 91
2020-08-27 08:00:00 16.6 0 Calma 4 Noroeste 0 -- -- 91
2020-08-27 07:00:00 17.2 0 Calma 5 Noroeste 0 -- -- 89
2020-08-27 06:00:00 17.9 0 Calma 8 Nordeste 0 -- -- 89
2020-08-27 05:00:00 18.2 0 Calma 6 Nordeste 0 -- -- 88
2020-08-27 04:00:00 18.6 0 Calma 5 Sudeste 0 -- -- 87
2020-08-27 03:00:00 18.6 0 Calma 4 Noroeste 0 -- -- 87
2020-08-27 02:00:00 18.6 0 Calma 5 Este 0 -- -- 87
2020-08-27 01:00:00 18.9 0 Calma 6 Nordeste 0 -- -- 87
2020-08-27 00:00:00 19.4 3 Nordeste 15 Nordeste 0 -- -- 85
2020-08-26 23:00:00 19.6 5 Nordeste 15 Este 0 -- -- 84
2020-08-26 22:00:00 19.9 3 Nordeste 22 Nordeste 0 -- -- 84
2020-08-26 21:00:00 20.8 8 Nordeste 20 Norte 0 -- -- 75
2020-08-26 20:00:00 23.5 6 Nordeste 24 Nordeste 0 -- -- 61
2020-08-26 19:00:00 26.3 7 Nordeste 21 Nordeste 0 -- -- 46
2020-08-26 18:00:00 29.2 6 Nordeste 25 Nordeste 0 -- -- 38
2020-08-26 17:00:00 29.5 8 Nordeste 24 Nordeste 0 -- -- 35
2020-08-26 16:00:00 30.1 8 Nordeste 22 Nordeste 0 -- -- 33
2020-08-26 15:00:00 30.6 4 Nordeste 18 Nordeste 0 -- -- 32
2020-08-26 14:00:00 28.9 6 Este 16 Nordeste 0 -- -- 36
2020-08-26 13:00:00 26.7 5 Este 14 Nordeste 0 -- -- 40
2020-08-26 12:00:00 24.5 4 Nordeste 17 Nordeste 0 -- -- 47
2020-08-26 11:00:00 22.3 2 Este 13 Este 0 -- -- 57
2020-08-26 10:00:00 17.4 0 Calma 6 Sudoeste 0 -- -- 79
2020-08-26 09:00:00 15.6 0 Calma 4 Oeste 0 -- -- 88
2020-08-26 08:00:00 14.4 0 Calma 2 Nordeste 0 -- -- 92
2020-08-26 07:00:00 14 0 Calma 3 Sudoeste 0 -- -- 93
2020-08-26 06:00:00 13.5 0 Calma 3 Sudoeste 0 -- -- 93
2020-08-26 05:00:00 12.7 0 Calma 3 Nordeste 0 -- -- 93
2020-08-26 04:00:00 11.5 0 Calma 4 Nordeste 0 -- -- 92
2020-08-26 03:00:00 12.4 0 Calma 0 Calma 0 -- -- 92
2020-08-26 02:00:00 13.5 0 Calma -- -- 0 -- -- 92
2020-08-26 01:00:00 14.1 0 Calma 0 Calma 0 -- -- 90
2020-08-26 00:00:00 16 0 Calma 11 Nordeste 0 -- -- 88
2020-08-25 23:00:00 16.6 0 Calma 10 Este 0 -- -- 84
2020-08-25 22:00:00 17.6 3 Nordeste 24 Nordeste 0 -- -- 76
2020-08-25 21:00:00 19.3 9 Este 25 Este 0 -- -- 62
2020-08-25 20:00:00 21.9 8 Nordeste 27 Nordeste 0 -- -- 49
2020-08-25 19:00:00 25.2 11 Nordeste 34 Este 0 -- -- 38
2020-08-25 18:00:00 27.1 9 Nordeste 34 Nordeste 0 -- -- 38
2020-08-25 17:00:00 30.6 8 Nordeste 29 Nordeste 0 -- -- 27
2020-08-25 16:00:00 33 10 Sudoeste 27 Sudoeste 0 -- -- 16
2020-08-25 15:00:00 32.1 12 Sudoeste 28 Sudoeste 0 -- -- 19
2020-08-25 14:00:00 30.1 13 Sudoeste 27 Sudoeste 0 -- -- 21
2020-08-25 13:00:00 29.1 9 Sudoeste 24 Oeste 0 -- -- 28
2020-08-25 12:00:00 23.6 2 Sur 8 Sudeste 0 -- -- 39
2020-08-25 11:00:00 18.3 0 Calma 7 Sudoeste 0 -- -- 58
2020-08-25 10:00:00 12.6 0 Calma 5 Sur 0 -- -- 84
2020-08-25 09:00:00 8.9 0 Calma -- -- 0 -- -- 94
2020-08-25 08:00:00 7.2 0 Calma -- -- 0 -- -- 94
2020-08-25 07:00:00 7.6 0 Calma -- -- 0 -- -- 93
2020-08-25 06:00:00 8 0 Calma -- -- 0 -- -- 93
2020-08-25 05:00:00 8.9 0 Calma -- -- 0 -- -- 92
2020-08-25 04:00:00 9.5 0 Calma 5 Nordeste 0 -- -- 92
2020-08-25 03:00:00 10.3 0 Calma 4 Nordeste 0 -- -- 91
2020-08-25 02:00:00 11.3 0 Calma -- -- 0 -- -- 89
2020-08-25 01:00:00 12.2 0 Calma 3 Noroeste 0 -- -- 83
2020-08-25 00:00:00 13.7 0 Calma 3 Sudoeste 0 -- -- 76
2020-08-24 23:00:00 15.7 0 Calma 4 Noroeste 0 -- -- 65
2020-08-24 22:00:00 17.6 0 Calma 5 Nordeste 0 -- -- 56
2020-08-24 21:00:00 20.3 0 Calma 5 Oeste 0 -- -- 45
2020-08-24 20:00:00 27 4 Sudoeste 9 Sudoeste 0 -- -- 28
2020-08-24 19:00:00 29 0 Calma 12 Sudoeste 0 -- -- 24
2020-08-24 18:00:00 28.8 2 Sur 12 Sudoeste 0 -- -- 24
2020-08-24 17:00:00 28.1 3 Sudoeste 13 Sur 0 -- -- 24
2020-08-24 16:00:00 27.3 3 Sudoeste 12 Sudoeste 0 -- -- 26
2020-08-24 15:00:00 25.3 5 Oeste 12 Oeste 0 -- -- 30
2020-08-24 14:00:00 24.7 3 Nordeste 14 Este 0 -- -- 35
2020-08-24 13:00:00 22.3 3 Nordeste 17 Nordeste 0 -- -- 40
2020-08-24 12:00:00 21.6 7 Este 19 Este 0 -- -- 46
2020-08-24 11:00:00 19.2 5 Nordeste 18 Nordeste 0 -- -- 53
2020-08-24 10:00:00 16.6 5 Este 12 Nordeste 0 -- -- 68
2020-08-24 09:00:00 12.4 2 Este 6 Sudeste 0 -- -- 91
2020-08-24 08:00:00 11 2 Nordeste 4 Nordeste 0 -- -- 92
2020-08-24 07:00:00 11 0 Calma 4 Nordeste 0 -- -- 92
2020-08-24 06:00:00 12.3 0 Calma 6 Nordeste 0 -- -- 88
2020-08-24 05:00:00 14.1 2 Nordeste 6 Este 0 -- -- 81
2020-08-24 04:00:00 14.4 0 Calma 13 Nordeste 0 -- -- 82
2020-08-24 03:00:00 14.4 3 Nordeste 13 Nordeste 0 -- -- 83
2020-08-24 02:00:00 14.4 5 Nordeste 13 Nordeste 0 -- -- 84
2020-08-24 01:00:00 13.8 0 Calma 4 Sur 0 -- -- 86
2020-08-24 00:00:00 14.2 0 Calma 6 Oeste 0 -- -- 86
2020-08-23 23:00:00 14.3 0 Calma 8 Este 0 -- -- 85
2020-08-23 22:00:00 15.3 3 Este 18 Este 0 -- -- 79
2020-08-23 21:00:00 16.8 5 Nordeste 22 Este 0 -- -- 70
2020-08-23 20:00:00 19.2 6 Nordeste 20 Sudeste 0 -- -- 58
2020-08-23 19:00:00 21.8 3 Nordeste 19 Nordeste 0 -- -- 47
2020-08-23 18:00:00 23.9 5 Nordeste 22 Nordeste 0 -- -- 38
2020-08-23 17:00:00 25.1 6 Nordeste 23 Noroeste 0 -- -- 36
2020-08-23 16:00:00 24.6 4 Nordeste 23 Nordeste 0 -- -- 33
2020-08-23 15:00:00 25 6 Nordeste 19 Este 0 -- -- 33
2020-08-23 14:00:00 24 3 Nordeste 18 Este 0 -- -- 36
2020-08-23 13:00:00 22.4 6 Este 18 Este 0 -- -- 39
2020-08-23 12:00:00 21.1 5 Este 17 Sudeste 0 -- -- 43
2020-08-23 11:00:00 19.2 3 Sudeste 10 Sudeste 0 -- -- 56
2020-08-23 10:00:00 13 3 Sudoeste 6 Oeste 0 -- -- 88
2020-08-23 09:00:00 10.9 0 Calma 5 Sudoeste 0 -- -- 94
2020-08-23 08:00:00 10.4 0 Calma 2 Noroeste 0 -- -- 94
2020-08-23 07:00:00 10.5 0 Calma 2 Oeste 0 -- -- 93
2020-08-23 06:00:00 11 0 Calma 3 Norte 0 -- -- 93
2020-08-23 05:00:00 10.9 0 Calma 3 Norte 0 -- -- 92
2020-08-23 04:00:00 11.8 0 Calma 3 Norte 0 -- -- 90
2020-08-23 03:00:00 13.2 3 Este 9 Nordeste 0 -- -- 89
2020-08-23 02:00:00 13.5 4 Este 9 Este 0 -- -- 89
2020-08-23 01:00:00 14.8 0 Calma 6 Este 0 -- -- 84
2020-08-23 00:00:00 15.2 5 Nordeste 17 Nordeste 0 -- -- 80
2020-08-22 23:00:00 15.5 8 Nordeste 24 Nordeste 0 -- -- 81
2020-08-22 22:00:00 15.9 6 Nordeste 22 Nordeste 0 -- -- 80
2020-08-22 21:00:00 16.2 5 Nordeste 17 Nordeste 0 -- -- 77
2020-08-22 20:00:00 17.8 4 Nordeste 26 Nordeste 0 -- -- 67
2020-08-22 19:00:00 19.4 9 Nordeste 27 Nordeste 0 -- -- 58
2020-08-22 18:00:00 22.3 14 Nordeste 29 Nordeste 0 -- -- 49
2020-08-22 17:00:00 24.5 8 Nordeste 26 Nordeste 0 -- -- 42
2020-08-22 16:00:00 25.8 9 Nordeste 25 Nordeste 0 -- -- 35
2020-08-22 15:00:00 26.2 0 Calma 15 Nordeste 0 -- -- 29
2020-08-22 14:00:00 25.3 0 Calma 11 Este 0 -- -- 33
2020-08-22 13:00:00 24.6 4 Este 14 Sudeste 0 -- -- 38
2020-08-22 12:00:00 22.2 4 Nordeste 13 Nordeste 0 -- -- 47
2020-08-22 11:00:00 20.5 3 Este 15 Nordeste 0 -- -- 53
2020-08-22 10:00:00 16.8 0 Calma 8 Nordeste 0 -- -- 77
2020-08-22 09:00:00 14.7 0 Calma 5 Sudoeste 0 -- -- 92
2020-08-22 08:00:00 12.7 0 Calma 3 Nordeste 0 -- -- 93
2020-08-22 07:00:00 12.2 0 Calma 2 Nordeste 0 -- -- 93
2020-08-22 06:00:00 13.2 0 Calma -- -- 0 -- -- 93
2020-08-22 05:00:00 13.6 0 Calma 3 Norte 0 -- -- 92
2020-08-22 04:00:00 13.6 0 Calma 3 Norte 0 -- -- 91
2020-08-22 03:00:00 14.7 0 Calma 4 Sudoeste 0 -- -- 88
2020-08-22 02:00:00 14.8 0 Calma 5 Oeste 0 -- -- 88
2020-08-22 01:00:00 14.2 0 Calma 3 Sudoeste 0 -- -- 90
2020-08-22 00:00:00 14 0 Calma 8 Este 0 -- -- 92
2020-08-21 23:00:00 14.8 0 Calma 10 Norte 0 -- -- 89
2020-08-21 22:00:00 15.4 4 Nordeste 16 Nordeste 0 -- -- 88
2020-08-21 21:00:00 16.8 6 Nordeste 23 Nordeste 0 -- -- 79
2020-08-21 20:00:00 19.6 10 Nordeste 27 Nordeste 0 -- -- 63
2020-08-21 19:00:00 24.7 11 Sudoeste 22 Sudoeste 0 -- -- 38
2020-08-21 18:00:00 25.9 12 Sudoeste 30 Sudoeste 0 -- -- 39
2020-08-21 17:00:00 24.8 14 Sudoeste 32 Sudoeste 0 -- -- 43
2020-08-21 16:00:00 22.9 9 Sudoeste 21 Oeste 0.1 -- -- 57
2020-08-21 15:00:00 21.6 7 Sudoeste 26 Sudoeste 0 -- -- 65
2020-08-21 14:00:00 22 9 Sudoeste 26 Sudoeste 0 -- -- 60
2020-08-21 13:00:00 22.6 9 Sudoeste 23 Sudoeste 0 -- -- 60
2020-08-21 12:00:00 20.9 8 Sudoeste 15 Sudoeste 0 -- -- 65
2020-08-21 11:00:00 19.4 5 Sudoeste 13 Sur 0 -- -- 75
2020-08-21 10:00:00 18.5 3 Sudoeste 12 Sudoeste 0 -- -- 78
2020-08-21 09:00:00 18.1 5 Sudoeste 15 Sudoeste 0 -- -- 79
2020-08-21 08:00:00 17.9 4 Sudoeste 9 Sudoeste 0 -- -- 80
2020-08-21 07:00:00 17.7 3 Sudoeste 7 Sudoeste 0 -- -- 83
2020-08-21 06:00:00 17.8 0 Calma 18 Sudoeste 0 -- -- 79
2020-08-21 05:00:00 17.7 9 Sudoeste 17 Sudoeste 0 -- -- 78
2020-08-21 04:00:00 17.6 3 Oeste 19 Oeste 0 -- -- 81
2020-08-21 03:00:00 17.4 0 Calma 9 Oeste 0 -- -- 90
2020-08-21 02:00:00 17.1 0 Calma 8 Sudoeste 0.4 -- -- 90
2020-08-21 01:00:00 17.3 3 Sudoeste 9 Sudoeste 0.4 -- -- 90
2020-08-21 00:00:00 17.9 6 Sudoeste 18 Sudoeste 0 -- -- 81